Time;durP1;ratioP1;P1;durP2;ratioP2;P2;SDS_P1;SDS_P2;PMS_P1;PMS_P2;Temp;Humidity;BMP_temperature;BMP_pressure;BME280_temperature;BME280_humidity;BME280_pressure;Samples;Min_cycle;Max_cycle;Signal;HPM_P1;HPM_P2
2022/05/18 00:01:36;;;;;;;6.13;4.07;;;17.50;99.90;;;;;;5014590;28;20054;-68
2022/05/18 00:04:04;;;;;;;6.57;4.38;;;17.40;99.90;;;;;;5015749;28;20099;-68
2022/05/18 00:06:29;;;;;;;5.30;4.25;;;17.40;99.90;;;;;;5015988;28;20421;-68
2022/05/18 00:08:55;;;;;;;7.25;4.30;;;17.30;99.90;;;;;;5015614;28;20058;-68
2022/05/18 00:11:21;;;;;;;7.65;4.45;;;17.30;99.90;;;;;;5016422;28;20046;-68
2022/05/18 00:13:49;;;;;;;8.32;4.38;;;17.30;99.90;;;;;;5016350;28;20356;-68
2022/05/18 00:16:16;;;;;;;6.85;4.25;;;17.20;99.90;;;;;;5015471;28;20050;-68
2022/05/18 00:18:42;;;;;;;6.75;4.10;;;17.10;99.90;;;;;;5015500;28;20469;-68
2022/05/18 00:21:08;;;;;;;6.78;4.20;;;17.10;99.90;;;;;;5016139;28;20046;-68
2022/05/18 00:23:34;;;;;;;7.93;4.30;;;17.00;99.90;;;;;;5016065;28;20045;-68
2022/05/18 00:26:01;;;;;;;7.57;4.57;;;17.00;99.90;;;;;;5014376;28;20041;-68
2022/05/18 00:28:27;;;;;;;6.65;4.10;;;17.00;99.90;;;;;;5015258;28;20046;-68
2022/05/18 00:30:52;;;;;;;6.25;4.15;;;16.90;99.90;;;;;;5015758;28;20056;-67
2022/05/18 00:33:19;;;;;;;8.88;5.03;;;16.80;99.90;;;;;;5015174;28;20078;-68
2022/05/18 00:35:44;;;;;;;5.68;4.07;;;16.80;99.90;;;;;;5015248;28;20049;-68
2022/05/18 00:38:11;;;;;;;5.95;4.40;;;16.80;99.90;;;;;;5015103;28;20099;-67
2022/05/18 00:40:40;;;;;;;6.55;4.78;;;16.80;99.90;;;;;;5015054;28;20054;-68
2022/05/18 00:43:10;;;;;;;6.60;4.38;;;16.80;99.90;;;;;;5014939;28;20049;-68
2022/05/18 00:45:35;;;;;;;6.57;4.47;;;16.70;99.90;;;;;;5014997;28;20054;-67
2022/05/18 00:48:01;;;;;;;6.35;4.78;;;16.70;99.90;;;;;;5013692;28;20521;-68
2022/05/18 00:50:34;;;;;;;8.23;5.07;;;16.70;99.90;;;;;;5015026;28;20402;-68
2022/05/18 00:53:18;;;;;;;6.95;4.43;;;16.70;99.90;;;;;;5014174;28;20058;-67
2022/05/18 00:55:48;;;;;;;8.02;4.20;;;16.60;99.90;;;;;;5014808;28;20056;-68
2022/05/18 00:58:20;;;;;;;6.75;4.10;;;16.60;99.90;;;;;;5014892;28;20061;-67
2022/05/18 01:00:50;;;;;;;6.55;4.57;;;16.60;99.90;;;;;;5015228;28;20045;-68
2022/05/18 01:03:25;;;;;;;5.70;3.92;;;16.50;99.90;;;;;;5014839;28;20064;-68
2022/05/18 01:05:57;;;;;;;5.68;4.07;;;16.50;99.90;;;;;;5013449;28;20142;-68
2022/05/18 01:08:45;;;;;;;8.02;4.35;;;16.50;99.90;;;;;;5014573;28;20129;-68
2022/05/18 01:11:12;;;;;;;7.10;4.25;;;16.50;99.90;;;;;;5015111;28;20129;-67
2022/05/18 01:13:38;;;;;;;7.45;4.10;;;16.50;99.90;;;;;;5014034;28;20064;-68
2022/05/18 01:16:04;;;;;;;5.15;4.13;;;16.50;99.90;;;;;;5014435;28;20050;-67
2022/05/18 01:18:30;;;;;;;6.03;4.43;;;16.50;99.90;;;;;;5015197;28;20124;-68
2022/05/18 01:20:55;;;;;;;5.75;4.22;;;16.50;99.90;;;;;;5014244;28;20551;-67
2022/05/18 01:23:38;;;;;;;5.78;4.20;;;16.40;99.90;;;;;;5014275;28;20475;-67
2022/05/18 01:26:23;;;;;;;7.32;4.10;;;16.50;99.90;;;;;;5014542;28;20050;-67
2022/05/18 01:28:53;;;;;;;5.72;4.30;;;16.40;99.90;;;;;;5014771;28;20046;-68
2022/05/18 01:31:36;;;;;;;6.22;4.07;;;16.40;99.90;;;;;;5012954;28;20423;-68
2022/05/18 01:34:02;;;;;;;5.72;3.97;;;16.40;99.90;;;;;;5014467;28;20072;-68
2022/05/18 01:36:28;;;;;;;6.53;4.18;;;16.40;99.90;;;;;;5013373;28;20482;-68
2022/05/18 01:38:53;;;;;;;6.80;4.22;;;16.30;99.90;;;;;;5014090;28;20136;-68
2022/05/18 01:41:21;;;;;;;5.57;4.18;;;16.30;99.90;;;;;;5013193;28;20475;-68
2022/05/18 01:43:51;;;;;;;6.50;4.38;;;16.30;99.90;;;;;;5012663;28;20050;-68
2022/05/18 01:46:19;;;;;;;6.25;4.25;;;16.20;99.90;;;;;;5014432;28;20045;-68
2022/05/18 01:48:50;;;;;;;5.20;3.92;;;16.20;99.90;;;;;;5014492;28;20379;-68
2022/05/18 01:51:53;;;;;;;5.80;4.65;;;16.20;99.90;;;;;;5013880;28;20046;-68
2022/05/18 01:54:19;;;;;;;5.68;4.00;;;16.10;99.90;;;;;;4973312;28;20102;-67
2022/05/18 01:56:44;;;;;;;6.22;4.50;;;16.10;99.90;;;;;;5005938;28;20483;-67
2022/05/18 01:59:10;;;;;;;6.07;3.92;;;16.10;99.90;;;;;;5013832;28;20077;-67
2022/05/18 02:01:37;;;;;;;5.53;4.10;;;16.00;99.90;;;;;;5012754;28;20524;-68
2022/05/18 02:04:03;;;;;;;5.75;4.00;;;16.00;99.90;;;;;;5013705;28;20050;-68
2022/05/18 02:06:32;;;;;;;5.90;4.13;;;16.00;99.90;;;;;;5013710;28;20091;-68
2022/05/18 02:08:58;;;;;;;8.48;4.45;;;16.00;99.90;;;;;;5013719;28;20092;-67
2022/05/18 02:11:24;;;;;;;5.70;4.40;;;16.00;99.90;;;;;;5013630;28;20046;-68
2022/05/18 02:13:51;;;;;;;6.80;4.22;;;16.00;99.90;;;;;;5013562;28;20080;-68
2022/05/18 02:16:17;;;;;;;6.25;4.15;;;15.90;99.90;;;;;;5013566;28;20052;-68
2022/05/18 02:18:42;;;;;;;5.70;4.20;;;15.90;99.90;;;;;;5014260;28;20046;-68
2022/05/18 02:21:10;;;;;;;6.75;4.32;;;15.90;99.90;;;;;;5014015;28;20514;-68
2022/05/18 02:23:37;;;;;;;7.90;3.75;;;15.90;99.90;;;;;;5013511;28;20050;-68
2022/05/18 02:26:11;;;;;;;5.28;4.18;;;15.90;99.90;;;;;;5016528;28;20395;-68
2022/05/18 02:28:37;;;;;;;8.30;4.13;;;15.90;99.90;;;;;;5018163;28;20053;-68
2022/05/18 02:31:03;;;;;;;5.65;4.25;;;15.90;99.90;;;;;;5017565;28;20392;-67
2022/05/18 02:33:29;;;;;;;6.65;4.00;;;15.80;99.90;;;;;;5017399;28;20046;-68
2022/05/18 02:35:55;;;;;;;5.35;4.30;;;15.80;99.90;;;;;;5017899;28;20050;-68
2022/05/18 02:38:21;;;;;;;7.30;4.50;;;15.80;99.90;;;;;;5016747;28;20112;-68
2022/05/18 02:40:47;;;;;;;8.05;4.90;;;15.80;99.90;;;;;;5017227;28;20437;-68
2022/05/18 02:43:12;;;;;;;6.18;4.20;;;15.80;99.90;;;;;;5017156;28;20042;-68
2022/05/18 02:45:38;;;;;;;6.00;3.85;;;15.80;99.90;;;;;;5017242;28;20062;-68
2022/05/18 02:48:05;;;;;;;9.18;4.70;;;15.80;99.90;;;;;;5017499;28;20050;-68
2022/05/18 02:50:33;;;;;;;6.32;3.70;;;15.70;99.90;;;;;;5017053;28;20101;-68
2022/05/18 02:52:59;;;;;;;7.18;4.78;;;15.70;99.90;;;;;;5017343;28;20038;-67
2022/05/18 02:58:09;;;;;;;6.10;4.38;;;15.60;99.90;;;;;;5017753;28;20064;-68
2022/05/18 03:00:35;;;;;;;5.72;4.18;;;15.60;99.90;;;;;;5017454;28;20096;-69
2022/05/18 03:03:01;;;;;;;6.35;4.07;;;15.60;99.90;;;;;;5016828;28;20389;-70
2022/05/18 03:05:26;;;;;;;7.93;4.72;;;15.60;99.90;;;;;;5016554;28;20072;-69
2022/05/18 03:07:52;;;;;;;6.30;4.10;;;15.60;99.90;;;;;;5016871;28;20120;-69
2022/05/18 03:10:18;;;;;;;8.23;4.88;;;15.60;99.90;;;;;;5017310;28;20135;-70
2022/05/18 03:12:44;;;;;;;6.05;4.03;;;15.60;99.90;;;;;;5016707;28;20053;-69
2022/05/18 03:15:12;;;;;;;7.05;4.28;;;15.60;99.90;;;;;;5016207;28;20052;-69
2022/05/18 03:17:38;;;;;;;6.72;4.13;;;15.60;99.90;;;;;;5016598;28;20049;-70
2022/05/18 03:20:04;;;;;;;7.15;4.10;;;15.60;99.90;;;;;;5016521;28;20052;-70
2022/05/18 03:25:14;;;;;;;9.85;4.70;;;15.50;99.90;;;;;;5017229;28;20057;-69
2022/05/18 03:27:45;;;;;;;7.72;5.00;;;15.50;99.90;;;;;;5016277;28;20046;-70
2022/05/18 03:30:14;;;;;;;6.55;4.50;;;15.50;99.90;;;;;;5016266;28;20049;-70
2022/05/18 03:32:40;;;;;;;6.32;4.38;;;15.50;99.90;;;;;;5016195;28;20511;-70
2022/05/18 03:35:07;;;;;;;6.63;4.70;;;15.50;99.90;;;;;;5016239;28;20046;-69
2022/05/18 03:37:33;;;;;;;9.77;4.68;;;15.40;99.90;;;;;;5015445;28;20054;-69
2022/05/18 03:39:58;;;;;;;6.05;4.65;;;15.40;99.90;;;;;;5016236;28;20046;-69
2022/05/18 03:42:24;;;;;;;7.70;4.63;;;15.40;99.90;;;;;;5016066;28;20042;-70
2022/05/18 03:44:50;;;;;;;7.32;4.88;;;15.40;99.90;;;;;;5016435;28;20042;-70
2022/05/18 03:47:15;;;;;;;7.18;4.45;;;15.40;99.90;;;;;;5016093;28;20191;-69
2022/05/18 03:49:41;;;;;;;7.63;4.88;;;15.40;99.90;;;;;;5016572;28;20057;-70
2022/05/18 03:52:07;;;;;;;9.40;4.70;;;15.40;99.90;;;;;;5016203;28;20049;-69
2022/05/18 03:54:33;;;;;;;7.93;4.78;;;15.40;99.90;;;;;;5015844;28;20061;-69
2022/05/18 03:56:59;;;;;;;7.22;5.00;;;15.40;99.90;;;;;;5015885;28;20061;-69
2022/05/18 03:59:26;;;;;;;8.05;5.72;;;15.40;99.90;;;;;;5015794;28;20042;-70
2022/05/18 04:01:52;;;;;;;6.45;4.80;;;15.40;99.90;;;;;;5016520;28;20363;-69
2022/05/18 04:04:17;;;;;;;8.60;4.82;;;15.40;99.90;;;;;;5015679;28;20052;-70
2022/05/18 04:06:43;;;;;;;6.75;4.80;;;15.40;99.90;;;;;;5015943;28;20406;-69
2022/05/18 04:09:09;;;;;;;7.68;4.72;;;15.40;99.90;;;;;;5014657;28;20065;-69
2022/05/18 04:11:34;;;;;;;8.48;4.65;;;15.40;99.90;;;;;;5016123;28;20061;-70
2022/05/18 04:14:00;;;;;;;6.55;4.45;;;15.40;99.90;;;;;;5015529;28;20042;-69
2022/05/18 04:16:26;;;;;;;6.30;4.65;;;15.50;99.90;;;;;;5015887;28;20049;-69
2022/05/18 04:18:51;;;;;;;11.15;5.07;;;15.50;99.90;;;;;;4998213;28;20046;-70
2022/05/18 04:21:17;;;;;;;6.65;4.80;;;15.50;99.90;;;;;;5015382;28;20137;-69
2022/05/18 04:23:43;;;;;;;7.82;4.75;;;15.50;99.90;;;;;;5015305;28;20042;-70
2022/05/18 04:26:09;;;;;;;7.57;5.00;;;15.60;99.90;;;;;;5015592;28;20049;-70
2022/05/18 04:28:35;;;;;;;5.72;4.75;;;15.60;99.90;;;;;;5015708;28;20398;-70
2022/05/18 04:31:01;;;;;;;6.88;4.90;;;15.70;99.90;;;;;;5015281;28;20474;-69
2022/05/18 04:33:27;;;;;;;6.95;5.00;;;15.70;99.90;;;;;;5014150;28;20042;-70
2022/05/18 04:35:53;;;;;;;8.40;5.28;;;15.80;99.90;;;;;;5015217;28;20133;-70
2022/05/18 04:38:21;;;;;;;7.20;4.82;;;15.80;99.90;;;;;;5015623;28;20085;-70
2022/05/18 04:40:47;;;;;;;6.70;4.80;;;15.90;99.90;;;;;;5015105;28;20046;-70
2022/05/18 04:43:14;;;;;;;7.60;5.03;;;15.90;99.90;;;;;;5014810;28;20034;-69
2022/05/18 04:45:45;;;;;;;7.75;4.63;;;16.00;99.90;;;;;;5015028;28;20062;-70
2022/05/18 04:48:15;;;;;;;7.10;4.60;;;16.00;99.90;;;;;;5016092;28;20120;-69
2022/05/18 04:50:41;;;;;;;5.88;4.80;;;16.10;99.90;;;;;;5014874;28;20049;-70
2022/05/18 04:53:06;;;;;;;8.05;5.18;;;16.10;99.90;;;;;;5015339;28;20041;-70
2022/05/18 04:55:32;;;;;;;7.78;5.05;;;16.20;99.90;;;;;;5014800;28;20095;-69
2022/05/18 04:58:02;;;;;;;8.50;5.25;;;16.30;99.90;;;;;;5014962;28;20072;-70
2022/05/18 05:00:28;;;;;;;8.25;5.53;;;16.30;99.90;;;;;;5015076;28;20057;-70
2022/05/18 05:02:57;;;;;;;9.82;4.95;;;16.40;99.90;;;;;;5014589;28;20041;-70
2022/05/18 05:05:24;;;;;;;7.85;5.30;;;16.50;99.90;;;;;;5015154;28;20054;-70
2022/05/18 05:07:49;;;;;;;7.78;5.95;;;16.50;99.90;;;;;;5013933;28;20054;-70
2022/05/18 05:10:16;;;;;;;7.90;5.70;;;16.60;99.90;;;;;;5014556;28;20077;-70
2022/05/18 05:12:42;;;;;;;7.38;5.70;;;16.60;99.90;;;;;;5015069;28;20046;-70
2022/05/18 05:15:09;;;;;;;8.02;5.82;;;16.70;99.90;;;;;;5013476;28;20046;-70
2022/05/18 05:17:35;;;;;;;9.10;5.10;;;16.80;99.90;;;;;;5014709;28;20077;-69
2022/05/18 05:20:01;;;;;;;10.43;5.90;;;16.90;99.90;;;;;;5014881;28;20050;-70
2022/05/18 05:22:27;;;;;;;8.73;6.00;;;17.00;99.90;;;;;;5013880;28;20053;-69
2022/05/18 05:24:52;;;;;;;7.90;6.03;;;17.00;99.90;;;;;;5014238;28;20046;-70
2022/05/18 05:27:18;;;;;;;8.05;6.45;;;17.00;99.90;;;;;;5014201;28;20041;-70
2022/05/18 05:29:44;;;;;;;9.30;5.63;;;17.10;99.90;;;;;;5013917;28;20092;-70
2022/05/18 05:32:10;;;;;;;8.85;5.57;;;17.20;99.90;;;;;;5013736;28;20058;-70
2022/05/18 05:34:36;;;;;;;9.55;6.18;;;17.20;99.90;;;;;;5014594;28;20088;-70
2022/05/18 05:37:02;;;;;;;9.95;6.57;;;17.30;99.90;;;;;;5014122;28;20042;-70
2022/05/18 05:39:28;;;;;;;7.10;5.72;;;17.40;99.90;;;;;;5013148;28;20042;-70
2022/05/18 05:41:54;;;;;;;9.95;6.38;;;17.50;99.90;;;;;;5014211;28;20049;-70
2022/05/18 05:44:20;;;;;;;8.98;6.32;;;17.50;99.90;;;;;;5014786;28;20108;-70
2022/05/18 05:46:46;;;;;;;10.68;6.57;;;17.70;99.90;;;;;;5013778;28;20054;-70
2022/05/18 05:49:12;;;;;;;10.43;6.55;;;17.70;99.90;;;;;;5014147;28;20479;-70
2022/05/18 05:51:38;;;;;;;10.30;6.60;;;17.80;99.90;;;;;;5013811;28;20442;-71
2022/05/18 05:54:04;;;;;;;9.15;6.55;;;17.90;99.90;;;;;;4996523;28;20053;-70
2022/05/18 05:56:30;;;;;;;10.07;6.50;;;18.00;99.90;;;;;;5013834;28;20399;-70
2022/05/18 05:58:56;;;;;;;11.02;6.53;;;18.00;99.90;;;;;;5014484;28;20042;-70
2022/05/18 06:01:22;;;;;;;9.32;6.60;;;18.20;99.90;;;;;;5013445;28;20423;-70
2022/05/18 06:03:48;;;;;;;9.38;6.90;;;18.20;99.90;;;;;;5013708;28;20116;-70
2022/05/18 06:06:14;;;;;;;7.63;6.05;;;18.30;99.90;;;;;;5013663;28;20491;-70
2022/05/18 06:08:40;;;;;;;9.98;6.93;;;18.40;99.90;;;;;;5013937;28;20046;-70
2022/05/18 06:11:09;;;;;;;9.30;6.70;;;18.50;99.90;;;;;;5013970;28;20095;-70
2022/05/18 06:13:35;;;;;;;10.20;6.72;;;18.60;99.90;;;;;;5013671;28;20103;-70
2022/05/18 06:16:02;;;;;;;9.55;7.50;;;18.70;99.90;;;;;;5014720;28;20125;-70
2022/05/18 06:18:29;;;;;;;11.38;6.88;;;18.70;99.90;;;;;;5013665;28;20089;-70
2022/05/18 06:20:56;;;;;;;9.30;6.70;;;18.80;99.90;;;;;;5014070;28;20042;-70
2022/05/18 06:23:22;;;;;;;11.00;6.30;;;18.90;99.90;;;;;;5013728;28;20490;-70
2022/05/18 06:25:48;;;;;;;12.13;7.45;;;18.90;99.90;;;;;;5012795;28;20423;-70
2022/05/18 06:28:14;;;;;;;7.90;6.78;;;19.00;99.90;;;;;;5013751;28;20184;-70
2022/05/18 06:30:41;;;;;;;8.95;7.15;;;19.10;99.90;;;;;;5013431;28;20085;-70
2022/05/18 06:33:07;;;;;;;9.02;7.20;;;19.10;99.90;;;;;;5013562;28;20412;-70
2022/05/18 06:35:33;;;;;;;10.52;7.32;;;19.20;99.90;;;;;;5013051;28;20124;-70
2022/05/18 06:37:59;;;;;;;10.43;7.45;;;19.20;99.90;;;;;;5013977;28;20042;-70
2022/05/18 06:43:17;;;;;;;8.23;7.30;;;19.40;99.90;;;;;;4983116;28;20580;-70
2022/05/18 06:45:43;;;;;;;10.75;6.72;;;19.50;99.90;;;;;;5013286;28;20050;-70
2022/05/18 06:48:09;;;;;;;9.48;6.40;;;19.50;99.90;;;;;;5014146;28;20054;-70
2022/05/18 06:50:34;;;;;;;10.32;6.88;;;19.60;99.90;;;;;;5013112;28;20061;-70
2022/05/18 06:53:00;;;;;;;8.15;6.03;;;19.70;99.90;;;;;;5013345;28;20042;-70
2022/05/18 06:55:26;;;;;;;10.60;6.93;;;19.80;99.90;;;;;;5013758;28;20042;-70
2022/05/18 06:57:51;;;;;;;8.90;6.60;;;19.90;99.90;;;;;;5012988;28;20140;-70
2022/05/18 07:00:17;;;;;;;8.15;6.07;;;20.00;99.90;;;;;;5013253;28;20052;-70
2022/05/18 07:02:43;;;;;;;7.55;6.38;;;20.10;99.90;;;;;;5013804;28;20050;-70
2022/05/18 07:05:09;;;;;;;8.63;6.30;;;20.20;99.90;;;;;;5012199;28;20058;-70
2022/05/18 07:07:35;;;;;;;9.32;6.70;;;20.40;99.90;;;;;;5013296;28;20100;-70
2022/05/18 07:10:01;;;;;;;9.05;6.38;;;20.50;99.90;;;;;;5012267;28;20061;-72
2022/05/18 07:12:27;;;;;;;10.13;6.05;;;20.60;99.90;;;;;;5014761;28;20046;-71
2022/05/18 07:14:52;;;;;;;7.32;5.95;;;20.70;99.90;;;;;;5016288;28;20104;-72
2022/05/18 07:17:18;;;;;;;7.93;6.40;;;20.80;99.90;;;;;;5015641;28;20561;-71
2022/05/18 07:19:44;;;;;;;7.30;5.65;;;20.90;99.90;;;;;;5016529;28;20133;-72
2022/05/18 07:22:11;;;;;;;10.65;6.40;;;21.00;99.90;;;;;;5017159;28;20046;-73
2022/05/18 07:24:37;;;;;;;8.93;6.47;;;21.00;99.90;;;;;;5031980;28;20050;-72
2022/05/18 07:27:03;;;;;;;7.93;5.82;;;21.10;99.90;;;;;;5016934;28;20133;-73
2022/05/18 07:29:29;;;;;;;7.80;6.10;;;21.20;99.90;;;;;;5016769;28;20050;-72
2022/05/18 07:32:12;;;;;;;7.22;6.10;;;21.30;99.90;;;;;;5015837;28;20116;-73
2022/05/18 07:34:43;;;;;;;7.57;5.70;;;21.40;99.90;;;;;;5016900;28;20050;-72
2022/05/18 07:37:09;;;;;;;7.53;5.72;;;21.50;99.90;;;;;;5017152;28;20052;-71
2022/05/18 07:39:35;;;;;;;7.35;6.00;;;21.50;99.90;;;;;;5015927;28;20052;-71
2022/05/18 07:42:03;;;;;;;8.00;5.78;;;21.50;99.90;;;;;;5016186;28;20050;-71
2022/05/18 07:44:29;;;;;;;7.45;5.40;;;21.60;99.90;;;;;;5015949;28;20046;-71
2022/05/18 07:46:55;;;;;;;9.07;5.50;;;21.70;99.90;;;;;;5015890;28;20053;-73
2022/05/18 07:49:21;;;;;;;9.38;5.47;;;21.80;99.90;;;;;;5016670;28;20057;-74
2022/05/18 07:51:47;;;;;;;7.22;5.03;;;21.90;99.90;;;;;;5015615;28;20505;-74
2022/05/18 07:54:14;;;;;;;8.60;5.47;;;22.00;99.90;;;;;;5015606;28;20046;-74
2022/05/18 07:56:40;;;;;;;7.40;5.40;;;22.10;99.90;;;;;;5015416;28;20371;-73
2022/05/18 07:59:08;;;;;;;6.35;4.70;;;22.20;99.90;;;;;;5015890;28;20460;-74
2022/05/18 08:01:36;;;;;;;9.45;5.13;;;22.30;99.90;;;;;;5015773;28;20192;-73
2022/05/18 08:04:02;;;;;;;10.05;5.72;;;22.50;99.90;;;;;;5015686;28;20103;-72
2022/05/18 08:06:28;;;;;;;7.00;4.68;;;22.60;99.90;;;;;;5016819;28;20049;-71
2022/05/18 08:08:55;;;;;;;7.30;5.30;;;22.80;99.90;;;;;;5015598;28;20459;-71
2022/05/18 08:16:50;;;;;;;7.53;5.05;;;23.10;99.90;;;;;;5016249;28;20100;-71
2022/05/18 08:19:17;;;;;;;6.70;5.22;;;23.10;99.90;;;;;;5015185;28;20494;-72
2022/05/18 08:21:43;;;;;;;7.47;4.95;;;23.10;99.90;;;;;;5014895;28;20045;-72
2022/05/18 08:24:09;;;;;;;8.10;3.92;;;23.20;99.90;;;;;;5014950;28;20046;-72
2022/05/18 08:26:35;;;;;;;6.78;4.43;;;23.40;99.90;;;;;;5016351;28;20108;-72
2022/05/18 08:29:03;;;;;;;6.40;4.68;;;23.50;99.90;;;;;;5015507;28;20375;-72
2022/05/18 08:31:29;;;;;;;7.10;5.03;;;23.60;99.90;;;;;;5014282;28;20545;-72
2022/05/18 08:33:54;;;;;;;6.72;5.28;;;23.70;99.90;;;;;;5015687;28;20050;-72
2022/05/18 08:36:21;;;;;;;10.13;4.35;;;23.70;99.90;;;;;;5013752;28;20037;-72
2022/05/18 08:38:46;;;;;;;9.15;5.30;;;23.90;99.90;;;;;;4997752;28;20511;-72
2022/05/18 08:41:15;;;;;;;8.50;4.68;;;23.90;99.90;;;;;;5013704;28;20050;-72
2022/05/18 08:43:44;;;;;;;7.53;4.70;;;24.00;99.90;;;;;;5015104;28;20048;-72
2022/05/18 08:46:20;;;;;;;7.00;4.40;;;24.00;99.90;;;;;;5014195;28;20482;-72
2022/05/18 08:48:56;;;;;;;6.88;4.53;;;24.10;99.90;;;;;;5015629;28;20058;-72
2022/05/18 08:51:57;;;;;;;6.35;4.85;;;24.20;99.90;;;;;;5014502;28;20057;-72
2022/05/18 08:54:53;;;;;;;7.10;4.85;;;24.20;99.90;;;;;;5012563;28;20061;-71
2022/05/18 08:57:34;;;;;;;6.25;5.05;;;24.20;99.90;;;;;;5014841;28;20057;-72
2022/05/18 09:00:08;;;;;;;7.43;4.60;;;24.20;99.90;;;;;;5014824;28;20100;-72
2022/05/18 09:02:35;;;;;;;6.32;5.18;;;24.30;99.90;;;;;;5014902;28;20064;-72
2022/05/18 09:05:16;;;;;;;6.70;4.60;;;24.30;99.90;;;;;;5014471;28;20049;-74
2022/05/18 09:08:03;;;;;;;7.40;4.35;;;24.50;99.90;;;;;;5014619;28;20048;-74
2022/05/18 09:10:44;;;;;;;5.90;5.00;;;24.50;99.90;;;;;;5015070;28;20129;-76
2022/05/18 09:13:10;;;;;;;5.72;4.78;;;24.60;99.90;;;;;;5014702;28;20391;-75
2022/05/18 09:15:44;;;;;;;5.88;4.93;;;24.60;99.90;;;;;;5015414;28;20050;-75
2022/05/18 09:18:23;;;;;;;6.65;4.57;;;24.70;99.90;;;;;;5014745;28;20442;-74
2022/05/18 09:21:00;;;;;;;7.35;5.13;;;24.80;99.90;;;;;;5014177;28;20042;-75
2022/05/18 09:23:52;;;;;;;7.15;4.75;;;24.90;99.90;;;;;;5014715;28;20446;-76
2022/05/18 09:26:20;;;;;;;4.97;4.30;;;24.90;99.90;;;;;;5014189;28;20092;-74
2022/05/18 09:28:49;;;;;;;7.32;5.13;;;24.90;99.90;;;;;;5014887;28;20050;-73
2022/05/18 09:31:34;;;;;;;6.05;4.65;;;25.00;99.90;;;;;;5014192;28;20050;-72
2022/05/18 09:34:03;;;;;;;6.22;4.55;;;25.00;99.90;;;;;;5013075;28;20038;-73
2022/05/18 09:36:47;;;;;;;9.15;5.20;;;25.10;99.90;;;;;;5013824;28;20049;-74
2022/05/18 09:39:17;;;;;;;6.88;5.47;;;25.20;99.90;;;;;;5014505;28;20049;-74
2022/05/18 09:41:52;;;;;;;9.77;5.38;;;25.20;99.90;;;;;;5013957;28;20383;-75
2022/05/18 09:44:40;;;;;;;6.47;4.75;;;25.20;99.90;;;;;;5013919;28;20081;-74
2022/05/18 09:47:10;;;;;;;7.65;4.90;;;25.20;99.90;;;;;;5014072;28;20054;-74
2022/05/18 09:49:59;;;;;;;11.43;5.50;;;25.20;99.90;;;;;;5014357;28;20107;-73
2022/05/18 09:52:28;;;;;;;6.05;5.13;;;25.30;99.90;;;;;;5014158;28;20041;-74
2022/05/18 09:54:58;;;;;;;5.88;5.15;;;25.30;99.90;;;;;;5013802;28;20077;-74
2022/05/18 09:57:38;;;;;;;5.95;4.95;;;25.30;99.90;;;;;;5013771;28;20041;-73
2022/05/18 10:00:15;;;;;;;7.60;5.72;;;25.30;99.90;;;;;;5014152;28;20092;-75
2022/05/18 10:08:42;;;;;;;7.57;4.65;;;25.40;99.90;;;;;;4972226;28;20051;-73
2022/05/18 10:11:15;;;;;;;7.30;4.95;;;25.50;99.90;;;;;;4972226;28;20081;-73
2022/05/18 10:13:53;;;;;;;7.20;5.07;;;25.60;99.90;;;;;;4986318;28;20111;-74
2022/05/18 10:16:31;;;;;;;6.82;4.65;;;25.60;99.90;;;;;;5013775;28;20092;-72
2022/05/18 10:18:59;;;;;;;6.57;4.50;;;25.70;99.90;;;;;;5013938;28;20176;-72
2022/05/18 10:21:40;;;;;;;7.28;4.53;;;25.80;99.90;;;;;;5013823;28;20536;-73
2022/05/18 10:24:29;;;;;;;5.47;4.47;;;25.80;99.90;;;;;;5012859;28;20042;-74
2022/05/18 10:27:17;;;;;;;5.82;5.13;;;25.90;99.90;;;;;;5013437;28;20138;-71
2022/05/18 10:30:01;;;;;;;6.53;5.10;;;25.90;99.90;;;;;;5013293;28;20099;-72
2022/05/18 10:32:27;;;;;;;6.18;5.05;;;25.90;99.90;;;;;;5014126;28;20038;-71
2022/05/18 10:34:54;;;;;;;6.38;5.22;;;25.90;99.90;;;;;;5013814;28;20046;-72
2022/05/18 10:37:38;;;;;;;6.20;5.43;;;26.00;99.90;;;;;;5014126;28;20081;-72
2022/05/18 10:40:08;;;;;;;6.80;5.10;;;26.00;99.90;;;;;;5013240;28;20514;-72
2022/05/18 10:42:52;;;;;;;5.22;4.13;;;26.10;99.90;;;;;;5013074;28;20085;-72
2022/05/18 10:45:32;;;;;;;6.53;4.50;;;26.10;99.90;;;;;;5012621;28;20410;-72
2022/05/18 10:48:12;;;;;;;6.10;4.70;;;26.10;99.90;;;;;;5017038;28;20065;-72
2022/05/18 10:50:39;;;;;;;5.47;4.35;;;26.20;99.90;;;;;;5016907;28;20088;-72
2022/05/18 10:53:17;;;;;;;7.15;4.95;;;26.20;99.90;;;;;;5016870;28;20115;-73
2022/05/18 10:56:10;;;;;;;5.68;4.45;;;26.20;99.90;;;;;;5015878;28;20502;-74
2022/05/18 10:58:48;;;;;;;6.35;5.25;;;26.10;99.90;;;;;;5017452;28;20394;-73
2022/05/18 11:01:16;;;;;;;7.00;5.65;;;26.00;99.90;;;;;;5016762;28;20089;-75
2022/05/18 11:03:51;;;;;;;7.68;5.30;;;26.00;99.90;;;;;;5015573;28;20045;-74
2022/05/18 11:06:28;;;;;;;7.15;5.68;;;26.10;99.90;;;;;;5017735;28;20212;-75
2022/05/18 11:08:59;;;;;;;6.90;5.80;;;26.00;99.90;;;;;;5016761;28;20137;-75
2022/05/18 11:11:49;;;;;;;6.72;4.85;;;25.70;99.90;;;;;;5015910;28;20057;-74
2022/05/18 11:14:33;;;;;;;7.53;5.13;;;25.80;99.90;;;;;;5016598;28;20042;-74
2022/05/18 11:17:21;;;;;;;10.00;5.30;;;26.00;99.90;;;;;;5017245;28;20053;-73
2022/05/18 11:19:53;;;;;;;5.97;4.93;;;26.10;99.90;;;;;;5016441;28;20073;-74
2022/05/18 11:22:33;;;;;;;7.25;4.90;;;26.20;99.90;;;;;;5016138;28;20049;-74
2022/05/18 11:25:10;;;;;;;8.52;5.50;;;26.20;99.90;;;;;;5017235;28;20429;-77
2022/05/18 11:27:56;;;;;;;7.88;5.03;;;26.30;99.90;;;;;;5015584;28;20129;-76
2022/05/18 11:30:34;;;;;;;6.80;5.32;;;26.30;99.90;;;;;;5016226;28;20053;-75
2022/05/18 11:33:36;;;;;;;7.75;4.32;;;26.30;99.90;;;;;;5016787;28;20065;-75
2022/05/18 11:36:46;;;;;;;6.60;4.70;;;26.40;99.90;;;;;;5016461;28;20092;-74
2022/05/18 11:39:28;;;;;;;5.90;4.88;;;26.50;99.90;;;;;;4988266;28;20506;-73
2022/05/18 11:42:13;;;;;;;6.97;5.50;;;26.50;99.90;;;;;;5016017;28;20096;-78
2022/05/18 11:45:05;;;;;;;6.85;4.07;;;26.50;99.90;;;;;;5015924;28;20042;-77
2022/05/18 11:47:43;;;;;;;8.55;4.80;;;26.60;99.90;;;;;;5015986;28;20497;-74
2022/05/18 11:50:14;;;;;;;6.97;4.78;;;26.70;99.90;;;;;;5016077;28;20054;-72
2022/05/18 11:52:49;;;;;;;5.82;4.40;;;26.70;99.90;;;;;;5015735;28;20135;-75
2022/05/18 11:55:27;;;;;;;5.37;4.13;;;26.80;99.90;;;;;;5015809;28;20046;-75
2022/05/18 11:58:49;;;;;;;7.75;4.57;;;26.80;99.90;;;;;;5015331;28;20515;-75
2022/05/18 12:02:01;;;;;;;6.22;4.57;;;26.80;99.90;;;;;;5000263;28;20057;-75
2022/05/18 12:04:54;;;;;;;6.53;4.85;;;26.80;99.90;;;;;;5010612;28;20069;-75
2022/05/18 12:07:32;;;;;;;7.75;5.50;;;26.80;99.90;;;;;;5015441;28;20046;-74
2022/05/18 12:10:23;;;;;;;6.47;4.72;;;26.80;99.90;;;;;;5016254;28;20050;-76
2022/05/18 12:13:41;;;;;;;6.43;4.18;;;26.80;99.90;;;;;;5015382;28;20056;-74
2022/05/18 12:16:35;;;;;;;6.07;4.15;;;26.80;99.90;;;;;;4998072;28;20058;-74
2022/05/18 12:19:30;;;;;;;5.75;4.07;;;26.90;99.90;;;;;;4986712;28;20065;-75
2022/05/18 12:21:59;;;;;;;5.82;4.35;;;27.00;99.90;;;;;;5014089;28;20131;-75
2022/05/18 12:24:26;;;;;;;7.22;4.30;;;27.00;99.90;;;;;;5015950;28;20073;-74
2022/05/18 12:26:53;;;;;;;5.47;4.00;;;26.80;99.90;;;;;;5015324;28;20053;-74
2022/05/18 12:29:22;;;;;;;4.95;3.72;;;26.70;99.90;;;;;;5015156;28;20108;-76
2022/05/18 12:31:51;;;;;;;5.18;3.60;;;26.70;99.90;;;;;;5014779;28;20085;-76
2022/05/18 12:34:33;;;;;;;6.93;4.60;;;26.80;99.90;;;;;;5015542;28;20124;-76
2022/05/18 12:37:14;;;;;;;6.93;4.03;;;27.10;99.90;;;;;;5015054;28;20060;-77
2022/05/18 12:39:50;;;;;;;5.75;3.92;;;27.30;99.90;;;;;;5014719;28;20487;-78
2022/05/18 12:42:28;;;;;;;5.78;4.20;;;27.10;99.90;;;;;;5014911;28;20132;-75
2022/05/18 12:45:00;;;;;;;4.20;3.80;;;27.00;99.90;;;;;;5015900;28;20179;-76
2022/05/18 12:47:52;;;;;;;6.05;4.50;;;26.90;99.90;;;;;;5015557;28;20135;-74
2022/05/18 12:50:50;;;;;;;8.32;5.32;;;26.90;99.90;;;;;;5014722;28;20060;-75
2022/05/18 12:53:30;;;;;;;5.97;4.72;;;27.00;99.90;;;;;;5014834;28;20077;-77
2022/05/18 12:56:17;;;;;;;9.45;5.65;;;27.20;99.90;;;;;;5014775;28;20077;-74
2022/05/18 12:59:05;;;;;;;7.53;4.60;;;27.40;99.90;;;;;;5013575;28;20049;-74
2022/05/18 13:01:36;;;;;;;6.40;4.70;;;27.30;99.90;;;;;;5013665;28;20148;-74
2022/05/18 13:04:10;;;;;;;9.20;5.20;;;27.50;99.90;;;;;;5013770;28;20045;-74
2022/05/18 13:06:36;;;;;;;8.70;5.60;;;27.50;99.90;;;;;;5014468;28;20157;-74
2022/05/18 13:09:23;;;;;;;5.28;4.35;;;27.60;99.90;;;;;;5013358;28;20085;-76
2022/05/18 13:12:04;;;;;;;5.55;4.47;;;27.60;99.90;;;;;;5014308;28;20061;-75
2022/05/18 13:14:48;;;;;;;9.77;5.78;;;27.70;99.90;;;;;;5014328;28;20050;-74
2022/05/18 13:17:16;;;;;;;6.18;4.22;;;27.70;99.90;;;;;;5014795;28;20050;-75
2022/05/18 13:19:47;;;;;;;5.55;3.80;;;27.60;99.90;;;;;;5014167;28;20081;-75
2022/05/18 13:22:16;;;;;;;7.20;4.55;;;27.50;99.90;;;;;;5014476;28;20434;-75
2022/05/18 13:24:46;;;;;;;7.10;6.03;;;27.30;99.90;;;;;;5014060;28;20137;-74
2022/05/18 13:27:11;;;;;;;8.18;6.45;;;27.00;99.90;;;;;;5014163;28;20042;-76